Time;durP1;ratioP1;P1;durP2;ratioP2;P2;SDS_P1;SDS_P2;PMS_P1;PMS_P2;Temp;Humidity;BMP_temperature;BMP_pressure;BME280_temperature;BME280_humidity;BME280_pressure;Samples;Min_cycle;Max_cycle;Signal;HPM_P1;HPM_P2
2023/08/24 00:00:45;;;;;;;11.60;10.90;;;24.70;20.20;;;;;;5096678;28;20556;-75
2023/08/24 00:03:11;;;;;;;10.67;10.07;;;24.70;20.40;;;;;;5096355;28;20186;-76
2023/08/24 00:05:37;;;;;;;11.87;11.00;;;24.70;20.40;;;;;;5096793;28;20404;-76
2023/08/24 00:08:07;;;;;;;11.17;10.47;;;24.70;20.60;;;;;;5096556;28;20725;-76
2023/08/24 00:10:33;;;;;;;10.27;9.57;;;24.70;20.60;;;;;;5078626;28;20424;-75
2023/08/24 00:12:59;;;;;;;12.20;11.40;;;24.70;20.60;;;;;;5097112;28;20523;-75
2023/08/24 00:15:24;;;;;;;10.93;10.23;;;24.70;20.60;;;;;;5099639;28;20191;-75
2023/08/24 00:17:50;;;;;;;12.37;11.60;;;24.50;20.40;;;;;;5096587;28;20732;-74
2023/08/24 00:20:16;;;;;;;12.23;11.43;;;24.30;20.90;;;;;;5096565;28;20654;-74
2023/08/24 00:22:41;;;;;;;12.00;11.10;;;24.20;21.20;;;;;;5095528;28;20190;-76
2023/08/24 00:25:08;;;;;;;12.17;11.40;;;24.10;21.40;;;;;;5096169;28;20171;-76
2023/08/24 00:27:35;;;;;;;11.77;11.17;;;24.10;21.80;;;;;;5095698;28;20207;-76
2023/08/24 00:30:02;;;;;;;13.27;12.00;;;24.20;21.80;;;;;;5095514;28;20413;-76
2023/08/24 00:32:28;;;;;;;12.50;11.60;;;24.20;21.60;;;;;;5095220;28;20515;-76
2023/08/24 00:34:54;;;;;;;11.93;11.20;;;24.30;21.60;;;;;;5095251;28;20509;-75
2023/08/24 00:37:19;;;;;;;12.53;11.40;;;24.30;21.50;;;;;;5096056;28;20649;-76
2023/08/24 00:39:45;;;;;;;13.23;12.23;;;24.40;21.50;;;;;;5095833;28;20174;-75
2023/08/24 00:42:14;;;;;;;13.40;12.40;;;24.40;21.50;;;;;;5095358;28;20632;-75
2023/08/24 00:44:40;;;;;;;13.10;12.20;;;24.40;21.60;;;;;;5095395;28;20167;-74
2023/08/24 00:47:07;;;;;;;13.53;12.40;;;24.40;21.60;;;;;;5095219;28;20444;-76
2023/08/24 00:49:33;;;;;;;11.63;10.93;;;24.40;21.50;;;;;;5077068;28;20652;-76
2023/08/24 00:52:00;;;;;;;11.10;10.50;;;24.40;21.50;;;;;;5095361;28;20409;-76
2023/08/24 00:54:26;;;;;;;12.47;11.33;;;24.40;21.60;;;;;;5095143;28;20656;-76
2023/08/24 00:56:52;;;;;;;11.60;10.90;;;24.40;21.50;;;;;;5095174;28;20405;-75
2023/08/24 00:59:18;;;;;;;10.93;10.33;;;24.50;21.70;;;;;;5094467;28;20405;-75
2023/08/24 01:01:46;;;;;;;11.50;10.70;;;24.40;21.60;;;;;;5094633;28;20420;-75
2023/08/24 01:04:12;;;;;;;12.30;11.40;;;24.40;21.50;;;;;;5094982;28;20721;-75
2023/08/24 01:06:38;;;;;;;11.67;10.97;;;24.40;21.50;;;;;;5094768;28;20490;-75
2023/08/24 01:09:04;;;;;;;11.43;10.90;;;24.40;21.50;;;;;;5094824;28;20502;-76
2023/08/24 01:11:49;;;;;;;11.13;10.53;;;24.40;21.40;;;;;;5095219;28;20166;-75
2023/08/24 01:14:23;;;;;;;11.40;10.80;;;24.30;21.10;;;;;;5094562;28;20431;-76
2023/08/24 01:16:53;;;;;;;12.03;10.50;;;24.20;21.10;;;;;;5094638;28;20450;-75
2023/08/24 01:19:38;;;;;;;11.53;10.50;;;24.20;21.40;;;;;;5095238;28;20404;-76
2023/08/24 01:22:08;;;;;;;11.10;10.50;;;24.20;21.20;;;;;;5094833;28;20404;-76
2023/08/24 01:24:40;;;;;;;11.87;11.27;;;24.20;21.00;;;;;;5094605;28;20506;-75
2023/08/24 01:27:06;;;;;;;11.20;10.50;;;24.20;20.90;;;;;;5076542;28;20507;-76
2023/08/24 01:29:32;;;;;;;12.43;11.67;;;24.20;20.90;;;;;;5094545;28;20409;-75
2023/08/24 01:31:58;;;;;;;11.50;10.13;;;24.20;20.90;;;;;;5095730;28;20409;-74
2023/08/24 01:34:23;;;;;;;11.70;11.10;;;24.20;21.00;;;;;;5095237;28;20508;-75
2023/08/24 01:36:49;;;;;;;11.67;10.90;;;24.20;20.80;;;;;;5095025;28;20186;-75
2023/08/24 01:39:30;;;;;;;11.27;10.70;;;24.30;21.10;;;;;;5094824;28;20178;-76
2023/08/24 01:42:00;;;;;;;11.37;10.77;;;24.20;21.20;;;;;;5101794;28;20597;-76
2023/08/24 01:44:28;;;;;;;11.00;10.13;;;24.20;21.30;;;;;;5076881;28;20489;-75
2023/08/24 01:46:54;;;;;;;11.60;11.00;;;24.20;21.70;;;;;;5096165;28;20417;-76
2023/08/24 01:49:22;;;;;;;11.97;11.10;;;24.30;21.80;;;;;;5076519;28;20965;-76
2023/08/24 01:51:48;;;;;;;11.83;10.90;;;24.20;21.70;;;;;;5095429;28;20401;-76
2023/08/24 01:54:13;;;;;;;11.70;10.80;;;23.90;22.20;;;;;;5099316;28;20424;-75
2023/08/24 01:56:39;;;;;;;11.53;10.80;;;23.80;22.70;;;;;;5116892;27;20485;-73
2023/08/24 01:59:04;;;;;;;11.53;10.83;;;23.90;22.70;;;;;;5112662;28;20190;-75
2023/08/24 02:01:30;;;;;;;11.43;10.63;;;23.70;22.70;;;;;;5112932;28;20183;-76
2023/08/24 02:03:56;;;;;;;12.30;11.30;;;23.80;23.00;;;;;;5109632;28;20186;-76
2023/08/24 02:06:21;;;;;;;12.03;11.33;;;23.90;22.80;;;;;;5104489;28;20536;-75
2023/08/24 02:08:47;;;;;;;13.00;11.33;;;23.90;22.60;;;;;;5102140;28;20462;-76
2023/08/24 02:11:13;;;;;;;11.97;11.27;;;23.90;22.60;;;;;;5101128;28;20269;-76
2023/08/24 02:13:38;;;;;;;12.47;11.37;;;23.90;22.80;;;;;;5097519;28;20187;-76
2023/08/24 02:16:05;;;;;;;12.23;11.40;;;23.90;22.90;;;;;;5096290;28;20579;-75
2023/08/24 02:18:31;;;;;;;12.73;11.83;;;23.90;22.90;;;;;;5082482;28;20204;-75
2023/08/24 02:20:57;;;;;;;11.63;10.93;;;23.90;22.80;;;;;;5103328;28;20476;-75
2023/08/24 02:23:22;;;;;;;11.47;10.87;;;23.90;22.80;;;;;;5098773;28;20195;-75
2023/08/24 02:25:48;;;;;;;11.77;11.07;;;23.90;22.70;;;;;;5095893;28;20259;-74
2023/08/24 02:28:14;;;;;;;13.27;12.30;;;23.90;22.80;;;;;;5093727;28;20206;-74
2023/08/24 02:30:39;;;;;;;11.50;10.53;;;23.90;22.90;;;;;;5094393;28;20174;-75
2023/08/24 02:33:05;;;;;;;11.90;10.97;;;23.90;23.00;;;;;;5094399;28;20191;-75
2023/08/24 02:35:31;;;;;;;12.73;12.00;;;23.90;22.90;;;;;;5095439;28;20178;-75
2023/08/24 02:37:57;;;;;;;12.30;11.40;;;23.90;22.90;;;;;;5094072;28;20448;-75
2023/08/24 02:40:22;;;;;;;12.00;11.20;;;23.90;22.90;;;;;;5093986;28;20167;-75
2023/08/24 02:42:48;;;;;;;12.60;11.70;;;23.90;22.90;;;;;;5092962;28;20539;-75
2023/08/24 02:45:14;;;;;;;12.60;11.67;;;23.90;23.20;;;;;;5075256;28;20220;-75
2023/08/24 02:47:39;;;;;;;13.13;12.20;;;23.90;22.90;;;;;;5093463;28;20240;-75
2023/08/24 02:50:06;;;;;;;12.57;11.97;;;23.90;23.00;;;;;;5093454;28;20175;-75
2023/08/24 02:52:32;;;;;;;13.40;12.40;;;23.90;23.10;;;;;;5092904;28;20691;-75
2023/08/24 02:54:58;;;;;;;13.30;12.17;;;23.90;23.00;;;;;;5074564;28;20879;-75
2023/08/24 02:57:24;;;;;;;11.97;11.37;;;23.90;22.90;;;;;;5092896;28;20507;-75
2023/08/24 02:59:49;;;;;;;12.57;11.60;;;23.90;23.00;;;;;;5092609;28;20490;-74
2023/08/24 03:02:15;;;;;;;13.13;12.30;;;23.90;23.10;;;;;;5092847;28;20698;-74
2023/08/24 03:04:40;;;;;;;13.93;13.03;;;23.90;23.10;;;;;;5092686;28;20171;-75
2023/08/24 03:07:07;;;;;;;13.40;12.60;;;23.90;23.10;;;;;;5074534;28;20178;-75
2023/08/24 03:09:35;;;;;;;15.10;13.60;;;23.90;23.10;;;;;;5074188;28;20170;-74
2023/08/24 03:12:00;;;;;;;14.40;13.50;;;23.90;23.00;;;;;;5074458;28;20487;-75
2023/08/24 03:14:26;;;;;;;14.07;13.13;;;23.90;23.20;;;;;;5092613;28;20405;-75
2023/08/24 03:16:51;;;;;;;13.67;12.87;;;23.90;23.40;;;;;;5093001;28;20700;-75
2023/08/24 03:19:18;;;;;;;13.57;12.87;;;23.80;23.40;;;;;;5093083;28;20171;-75
2023/08/24 03:21:43;;;;;;;14.53;13.63;;;23.60;23.90;;;;;;5075648;28;20185;-75
2023/08/24 03:24:09;;;;;;;14.73;13.60;;;23.50;24.10;;;;;;5092503;28;20437;-75
2023/08/24 03:26:35;;;;;;;13.70;13.00;;;23.50;24.10;;;;;;5093669;28;20944;-75
2023/08/24 03:29:00;;;;;;;15.63;14.43;;;23.50;24.10;;;;;;5093464;28;20197;-74
2023/08/24 03:31:30;;;;;;;16.37;15.27;;;23.40;24.90;;;;;;5093245;28;20236;-74
2023/08/24 03:33:56;;;;;;;16.40;15.07;;;23.40;25.40;;;;;;5075523;28;20244;-74
2023/08/24 03:36:21;;;;;;;15.57;14.63;;;23.30;25.60;;;;;;5092909;28;20451;-75
2023/08/24 03:38:47;;;;;;;15.83;14.90;;;23.20;26.00;;;;;;5093398;28;20257;-75
2023/08/24 03:41:12;;;;;;;17.00;15.60;;;23.20;26.10;;;;;;5092954;28;20253;-76
2023/08/24 03:43:38;;;;;;;17.40;16.20;;;23.30;26.00;;;;;;5092143;28;20568;-77
2023/08/24 03:46:05;;;;;;;16.40;15.27;;;23.20;26.30;;;;;;5092388;28;20208;-75
2023/08/24 03:48:31;;;;;;;16.43;15.33;;;23.20;26.60;;;;;;5092166;28;20190;-75
2023/08/24 03:50:57;;;;;;;16.87;15.47;;;23.10;27.00;;;;;;5092214;28;20458;-74
2023/08/24 03:53:23;;;;;;;17.30;16.00;;;23.10;27.00;;;;;;5092240;28;20429;-75
2023/08/24 03:55:49;;;;;;;17.60;16.37;;;23.10;27.30;;;;;;5091823;28;20778;-75
2023/08/24 03:58:15;;;;;;;17.63;16.60;;;23.00;27.60;;;;;;5073814;28;20175;-75
2023/08/24 04:00:41;;;;;;;18.53;17.23;;;23.00;27.50;;;;;;5091860;28;20415;-75
2023/08/24 04:03:07;;;;;;;17.93;16.80;;;23.20;27.30;;;;;;5091867;28;20190;-75
2023/08/24 04:05:33;;;;;;;17.00;15.67;;;23.10;27.20;;;;;;5092168;28;20412;-74
2023/08/24 04:08:00;;;;;;;16.30;15.23;;;23.10;26.40;;;;;;5073377;28;20460;-75
2023/08/24 04:10:26;;;;;;;19.17;17.90;;;23.20;26.20;;;;;;5091939;28;20537;-75
2023/08/24 04:12:53;;;;;;;18.10;16.90;;;23.10;26.80;;;;;;5091647;28;20421;-75
2023/08/24 04:15:19;;;;;;;16.97;15.90;;;23.10;26.80;;;;;;5071427;28;20933;-75
2023/08/24 04:17:44;;;;;;;17.90;16.50;;;23.10;27.10;;;;;;5091082;28;20412;-76
2023/08/24 04:20:11;;;;;;;17.03;15.93;;;23.10;27.00;;;;;;5090931;28;20178;-76
2023/08/24 04:22:36;;;;;;;17.23;16.27;;;23.10;27.00;;;;;;5090888;28;20186;-76
2023/08/24 04:25:02;;;;;;;18.83;17.47;;;23.20;27.00;;;;;;5091437;28;20416;-76
2023/08/24 04:27:28;;;;;;;19.50;17.90;;;23.30;26.80;;;;;;5090939;28;20194;-76
2023/08/24 04:29:53;;;;;;;18.33;17.03;;;23.20;26.90;;;;;;5090825;28;20174;-76
2023/08/24 04:32:19;;;;;;;18.50;17.40;;;23.20;27.00;;;;;;5091296;28;20214;-76
2023/08/24 04:34:44;;;;;;;18.30;17.17;;;23.10;27.10;;;;;;5074942;28;20663;-76
2023/08/24 04:37:10;;;;;;;18.47;16.97;;;23.00;27.40;;;;;;5094899;28;20171;-76
2023/08/24 04:39:35;;;;;;;17.13;16.23;;;22.80;27.80;;;;;;5094638;28;20194;-76
2023/08/24 04:42:02;;;;;;;17.53;16.00;;;22.80;28.00;;;;;;5076388;28;20694;-76
2023/08/24 04:44:28;;;;;;;17.63;16.57;;;22.80;27.80;;;;;;5094867;28;20158;-76
2023/08/24 04:46:53;;;;;;;17.80;16.50;;;22.90;27.80;;;;;;5094555;28;20455;-76
2023/08/24 04:49:19;;;;;;;18.17;17.03;;;23.00;27.50;;;;;;5094738;28;20259;-77
2023/08/24 04:51:44;;;;;;;17.90;16.70;;;23.10;27.30;;;;;;5076252;28;20636;-78
2023/08/24 04:54:10;;;;;;;17.53;16.23;;;23.10;27.10;;;;;;5094798;28;20197;-77
2023/08/24 04:56:35;;;;;;;17.03;15.63;;;23.30;26.90;;;;;;5076624;28;20224;-77
2023/08/24 04:59:02;;;;;;;17.20;15.93;;;23.30;26.70;;;;;;5093792;28;20251;-76
2023/08/24 05:01:28;;;;;;;17.03;15.83;;;23.30;26.50;;;;;;5075806;28;20179;-76
2023/08/24 05:03:54;;;;;;;17.33;16.30;;;23.40;26.50;;;;;;5094034;28;20447;-76
2023/08/24 05:06:20;;;;;;;17.07;15.90;;;23.40;26.60;;;;;;5093746;28;20408;-76
2023/08/24 05:08:46;;;;;;;16.47;15.20;;;23.40;26.70;;;;;;5094009;28;20301;-76
2023/08/24 05:11:13;;;;;;;18.30;16.90;;;23.40;26.60;;;;;;5080344;28;20520;-75
2023/08/24 05:13:43;;;;;;;18.13;17.10;;;23.40;26.50;;;;;;5092014;22;20217;-57
2023/08/24 05:16:13;;;;;;;17.50;16.40;;;23.50;26.40;;;;;;5071574;28;20524;-57
2023/08/24 05:18:40;;;;;;;17.30;16.00;;;23.50;26.40;;;;;;5072041;28;20812;-58
2023/08/24 05:21:05;;;;;;;16.53;15.50;;;23.50;26.50;;;;;;5071839;28;20409;-57
2023/08/24 05:23:32;;;;;;;15.63;14.60;;;23.50;25.70;;;;;;5068821;28;20421;-57
2023/08/24 05:25:59;;;;;;;17.20;16.10;;;23.40;25.60;;;;;;5058044;28;20179;-57
2023/08/24 05:28:25;;;;;;;16.03;15.23;;;23.30;25.70;;;;;;5055378;28;20911;-58
2023/08/24 05:30:52;;;;;;;15.30;14.50;;;23.20;25.80;;;;;;5073822;28;20410;-58
2023/08/24 05:33:19;;;;;;;16.97;15.97;;;23.10;26.30;;;;;;5055896;28;20900;-59
2023/08/24 05:35:44;;;;;;;17.33;16.30;;;23.10;26.50;;;;;;5055839;28;20414;-58
2023/08/24 05:38:10;;;;;;;16.90;15.90;;;23.00;26.50;;;;;;5055556;28;20471;-60
2023/08/24 05:40:37;;;;;;;17.00;16.07;;;22.90;26.70;;;;;;5055923;28;20194;-60
2023/08/24 05:43:03;;;;;;;15.60;14.70;;;23.00;26.20;;;;;;5055646;28;20274;-60
2023/08/24 05:45:28;;;;;;;16.23;15.33;;;23.00;26.30;;;;;;5055477;28;20508;-60
2023/08/24 05:47:54;;;;;;;16.03;15.13;;;23.10;26.00;;;;;;5055241;28;20210;-59
2023/08/24 05:50:19;;;;;;;15.87;15.07;;;23.20;25.80;;;;;;5055409;28;20262;-60
2023/08/24 05:52:45;;;;;;;14.70;13.90;;;23.20;24.50;;;;;;5054660;28;20171;-60
2023/08/24 05:55:11;;;;;;;15.10;14.30;;;23.30;25.10;;;;;;5055287;28;20175;-61
2023/08/24 05:57:36;;;;;;;15.73;14.93;;;23.40;24.00;;;;;;5067763;28;20194;-61
2023/08/24 06:00:09;;;;;;;14.00;13.40;;;23.40;24.00;;;;;;5052754;28;20237;-60
2023/08/24 06:02:35;;;;;;;14.70;13.90;;;23.50;24.50;;;;;;5072593;28;20516;-59
2023/08/24 06:05:01;;;;;;;15.00;14.10;;;23.50;24.20;;;;;;5070778;28;20427;-59
2023/08/24 06:07:27;;;;;;;15.57;14.50;;;23.60;24.10;;;;;;5069898;28;20463;-61
2023/08/24 06:09:53;;;;;;;15.87;14.37;;;23.60;24.10;;;;;;5105301;28;20257;-60
2023/08/24 06:12:19;;;;;;;15.50;14.70;;;23.50;23.90;;;;;;5074063;28;20182;-60
2023/08/24 06:14:44;;;;;;;15.33;14.30;;;23.60;24.10;;;;;;5074384;28;20437;-59
2023/08/24 06:17:10;;;;;;;15.37;14.50;;;23.60;24.30;;;;;;5075343;28;20569;-59
2023/08/24 06:19:36;;;;;;;14.90;13.90;;;23.50;23.60;;;;;;5074788;28;20175;-59
2023/08/24 06:22:01;;;;;;;14.90;13.40;;;23.50;24.10;;;;;;5075141;28;20261;-57
2023/08/24 06:24:27;;;;;;;14.07;13.30;;;23.40;24.00;;;;;;5074865;28;20274;-56
2023/08/24 06:26:52;;;;;;;13.73;13.10;;;23.40;24.00;;;;;;5074837;28;20607;-56
2023/08/24 06:29:18;;;;;;;15.53;14.43;;;23.50;24.10;;;;;;5074404;28;20214;-56
2023/08/24 06:31:43;;;;;;;14.83;13.87;;;23.60;23.70;;;;;;5074742;28;20171;-56
2023/08/24 06:34:09;;;;;;;15.33;14.17;;;23.60;23.40;;;;;;5074421;28;20174;-56
2023/08/24 06:36:35;;;;;;;14.60;13.70;;;23.60;23.50;;;;;;5074735;28;20179;-56
2023/08/24 06:39:00;;;;;;;14.33;13.70;;;23.60;23.60;;;;;;5074309;28;20297;-56
2023/08/24 06:41:26;;;;;;;14.90;13.80;;;23.60;23.50;;;;;;5074631;28;20178;-56
2023/08/24 06:43:53;;;;;;;13.63;13.00;;;23.60;23.80;;;;;;5074522;28;20916;-56
2023/08/24 06:46:19;;;;;;;15.17;13.97;;;23.60;23.60;;;;;;5074535;28;20178;-56
2023/08/24 06:48:45;;;;;;;13.77;13.07;;;23.70;23.70;;;;;;5074227;28;20829;-58
2023/08/24 06:51:11;;;;;;;15.07;14.07;;;23.70;24.20;;;;;;5074393;28;20175;-56
2023/08/24 06:53:37;;;;;;;14.30;13.60;;;23.80;24.10;;;;;;5074732;28;20420;-59
2023/08/24 06:56:03;;;;;;;14.67;13.47;;;23.80;24.00;;;;;;5074614;28;20435;-59
2023/08/24 06:58:29;;;;;;;15.07;14.07;;;23.80;24.30;;;;;;5073378;28;20190;-56
2023/08/24 07:00:57;;;;;;;13.60;12.80;;;23.90;24.30;;;;;;5074135;28;20493;-56
2023/08/24 07:03:24;;;;;;;14.70;13.80;;;23.80;24.30;;;;;;5074343;28;20232;-56
2023/08/24 07:05:50;;;;;;;15.73;14.30;;;23.80;24.30;;;;;;5074153;28;20827;-56
2023/08/24 07:08:16;;;;;;;14.93;14.03;;;23.90;24.30;;;;;;5074152;28;20460;-56
2023/08/24 07:10:42;;;;;;;16.00;14.83;;;23.90;24.60;;;;;;5074314;28;20834;-56
2023/08/24 07:13:09;;;;;;;15.70;14.80;;;23.80;25.00;;;;;;5074171;28;20444;-56
2023/08/24 07:15:34;;;;;;;15.63;14.40;;;23.80;25.30;;;;;;5074166;28;20409;-58
2023/08/24 07:18:01;;;;;;;14.70;13.90;;;23.80;25.50;;;;;;5092402;28;20413;-58
2023/08/24 07:20:27;;;;;;;15.80;14.73;;;23.90;25.90;;;;;;5074292;28;20185;-59
2023/08/24 07:22:53;;;;;;;15.53;14.33;;;23.90;25.70;;;;;;5074361;28;20417;-59
2023/08/24 07:25:21;;;;;;;16.17;15.07;;;23.90;25.80;;;;;;5074244;28;20217;-60
2023/08/24 07:27:47;;;;;;;15.20;14.30;;;24.00;25.70;;;;;;5074029;28;20463;-59
2023/08/24 07:30:13;;;;;;;15.50;14.40;;;24.10;25.50;;;;;;5074070;28;20416;-59
2023/08/24 07:32:38;;;;;;;15.50;14.57;;;24.00;25.40;;;;;;5074280;28;20218;-59
2023/08/24 07:35:06;;;;;;;15.93;14.83;;;24.10;25.10;;;;;;5074098;28;20451;-59
2023/08/24 07:37:32;;;;;;;15.73;14.83;;;24.10;24.50;;;;;;5074134;28;20265;-59
2023/08/24 07:39:57;;;;;;;17.00;15.90;;;24.10;24.50;;;;;;5074023;28;20499;-59
2023/08/24 07:42:23;;;;;;;16.77;15.80;;;24.10;24.50;;;;;;5073918;28;20895;-59
2023/08/24 07:44:49;;;;;;;15.50;14.17;;;24.10;25.00;;;;;;5073841;28;20583;-60
2023/08/24 07:47:15;;;;;;;14.07;13.13;;;24.20;24.70;;;;;;5073617;28;20175;-60
2023/08/24 07:49:44;;;;;;;16.57;15.47;;;24.20;24.50;;;;;;5073876;28;20508;-59
2023/08/24 07:52:13;;;;;;;15.93;14.83;;;24.30;24.50;;;;;;5073650;28;20412;-59
2023/08/24 07:54:39;;;;;;;16.70;15.53;;;24.20;24.50;;;;;;5073798;28;20512;-59
2023/08/24 07:57:05;;;;;;;17.37;16.03;;;24.30;24.60;;;;;;5073627;28;20516;-59
2023/08/24 07:59:31;;;;;;;17.07;15.90;;;24.30;24.60;;;;;;5073679;28;20654;-58
2023/08/24 08:01:56;;;;;;;18.87;17.30;;;24.40;24.50;;;;;;5073456;28;20455;-59
2023/08/24 08:04:22;;;;;;;16.60;15.70;;;24.40;24.70;;;;;;5073089;28;20183;-59
2023/08/24 08:06:48;;;;;;;16.83;15.73;;;24.50;24.70;;;;;;5071094;28;20239;-58
2023/08/24 08:09:13;;;;;;;18.37;16.60;;;24.50;24.70;;;;;;5090701;28;20255;-59
2023/08/24 08:11:39;;;;;;;17.97;16.07;;;24.50;24.70;;;;;;5075674;28;20186;-57
2023/08/24 08:14:04;;;;;;;16.73;15.30;;;24.60;24.80;;;;;;5075151;28;20553;-58
2023/08/24 08:16:30;;;;;;;17.00;15.80;;;24.60;24.20;;;;;;5075415;28;20175;-57
2023/08/24 08:18:56;;;;;;;15.70;14.70;;;24.70;23.80;;;;;;5075298;28;20639;-58
2023/08/24 08:21:23;;;;;;;16.07;15.17;;;24.80;23.70;;;;;;5075801;28;20511;-58
2023/08/24 08:23:49;;;;;;;14.57;13.47;;;24.80;23.20;;;;;;5077257;28;20650;-58
2023/08/24 08:26:15;;;;;;;14.47;13.47;;;24.80;23.60;;;;;;5077242;28;20918;-58
2023/08/24 08:28:41;;;;;;;14.07;13.20;;;24.90;22.20;;;;;;5076809;28;20533;-58
2023/08/24 08:31:07;;;;;;;13.53;12.83;;;25.00;22.50;;;;;;5076997;28;20509;-57
2023/08/24 08:33:32;;;;;;;13.80;13.10;;;25.00;21.30;;;;;;5077080;28;20179;-57
2023/08/24 08:35:59;;;;;;;13.97;13.00;;;25.20;20.90;;;;;;5077147;28;20273;-58
2023/08/24 08:38:27;;;;;;;14.63;13.73;;;25.30;20.90;;;;;;5076874;28;20186;-59
2023/08/24 08:41:01;;;;;;;14.70;13.90;;;25.30;20.80;;;;;;5076911;28;20413;-59
2023/08/24 08:43:27;;;;;;;13.83;13.03;;;25.30;20.60;;;;;;5076917;28;20790;-59
2023/08/24 08:45:55;;;;;;;15.23;14.00;;;25.30;20.10;;;;;;5076936;28;20415;-59
2023/08/24 08:48:22;;;;;;;16.03;14.47;;;25.40;20.30;;;;;;5076345;28;20310;-57
2023/08/24 08:50:56;;;;;;;14.97;14.07;;;25.30;20.30;;;;;;5076679;28;20405;-58
2023/08/24 08:53:22;;;;;;;15.37;14.47;;;25.40;20.70;;;;;;5076652;28;20421;-59
2023/08/24 08:55:53;;;;;;;15.20;14.30;;;25.40;20.40;;;;;;5076522;28;20409;-59
2023/08/24 08:58:20;;;;;;;16.80;15.67;;;25.40;20.60;;;;;;5076380;28;20420;-59
2023/08/24 09:00:47;;;;;;;15.83;14.83;;;25.60;20.80;;;;;;5076477;28;20420;-59
2023/08/24 09:03:17;;;;;;;13.60;12.97;;;25.70;19.90;;;;;;5076507;28;20482;-59
2023/08/24 09:05:43;;;;;;;13.93;12.60;;;25.80;19.40;;;;;;5076508;28;20821;-59
2023/08/24 09:08:09;;;;;;;13.93;12.63;;;26.00;19.00;;;;;;5076134;28;20541;-59
2023/08/24 09:10:34;;;;;;;14.93;14.03;;;26.10;18.70;;;;;;5076425;28;20413;-59
2023/08/24 09:13:00;;;;;;;14.97;13.87;;;26.20;18.40;;;;;;5076178;28;20448;-59
2023/08/24 09:15:27;;;;;;;15.07;13.87;;;26.20;18.50;;;;;;5076305;28;20183;-58
2023/08/24 09:17:55;;;;;;;13.90;13.20;;;26.20;19.00;;;;;;5076130;28;20235;-58
2023/08/24 09:20:20;;;;;;;12.77;12.07;;;26.30;18.10;;;;;;5075518;28;20420;-58
2023/08/24 09:22:46;;;;;;;13.40;12.60;;;26.50;17.20;;;;;;5075705;28;20781;-58
2023/08/24 09:25:12;;;;;;;16.70;12.03;;;26.50;17.20;;;;;;5076283;28;20263;-59
2023/08/24 09:27:38;;;;;;;12.43;11.73;;;26.70;16.90;;;;;;5075886;28;20202;-59
2023/08/24 09:30:05;;;;;;;12.50;11.70;;;26.80;16.70;;;;;;5075857;28;20585;-59
2023/08/24 09:32:32;;;;;;;12.87;12.10;;;27.10;16.70;;;;;;5075899;28;20693;-60
2023/08/24 09:35:10;;;;;;;13.60;12.90;;;27.30;16.70;;;;;;5075923;28;20496;-59
2023/08/24 09:37:37;;;;;;;14.57;13.37;;;27.50;16.10;;;;;;5075719;28;20424;-59
2023/08/24 09:40:09;;;;;;;13.10;12.40;;;27.60;15.20;;;;;;5093742;28;20400;-60
2023/08/24 09:42:42;;;;;;;12.60;11.70;;;27.80;15.40;;;;;;5075692;28;20926;-60
2023/08/24 09:45:12;;;;;;;12.90;12.13;;;27.90;15.30;;;;;;5075701;28;20837;-59
2023/08/24 09:47:38;;;;;;;12.90;12.20;;;28.10;15.70;;;;;;5075335;28;20461;-60
2023/08/24 09:50:05;;;;;;;12.90;12.10;;;28.20;14.50;;;;;;5075350;28;20530;-60
2023/08/24 09:52:34;;;;;;;12.53;11.47;;;28.30;14.40;;;;;;5075414;28;20171;-60
2023/08/24 09:55:06;;;;;;;12.73;12.03;;;28.30;13.70;;;;;;5075440;28;20996;-60
2023/08/24 09:57:37;;;;;;;13.70;12.80;;;28.30;13.70;;;;;;5075251;28;20942;-56
2023/08/24 10:00:11;;;;;;;14.33;13.33;;;28.40;13.80;;;;;;5075033;28;20905;-60
2023/08/24 10:02:48;;;;;;;12.53;11.93;;;28.50;13.90;;;;;;5075438;28;20452;-61
2023/08/24 10:05:20;;;;;;;13.37;12.47;;;28.60;14.50;;;;;;5075450;28;20428;-61
2023/08/24 10:07:53;;;;;;;15.10;13.90;;;28.80;13.90;;;;;;5074876;28;20506;-61
2023/08/24 10:10:20;;;;;;;14.53;13.40;;;28.80;13.80;;;;;;5075316;28;20408;-60
2023/08/24 10:12:50;;;;;;;12.73;12.10;;;28.90;13.90;;;;;;5074889;28;20823;-60
2023/08/24 10:15:18;;;;;;;13.70;12.90;;;29.00;13.60;;;;;;5075153;28;20416;-60
2023/08/24 10:17:45;;;;;;;13.50;12.70;;;29.00;13.90;;;;;;5080982;22;20906;-78
2023/08/24 10:20:11;;;;;;;14.50;13.40;;;29.10;13.80;;;;;;5045886;28;20903;-78
2023/08/24 10:22:40;;;;;;;13.40;12.70;;;29.20;14.20;;;;;;5049485;28;20403;-79
2023/08/24 10:25:07;;;;;;;13.90;13.00;;;29.10;13.70;;;;;;5048172;28;20506;-78
2023/08/24 10:27:33;;;;;;;14.37;13.40;;;29.10;13.70;;;;;;5018649;28;20581;-78
2023/08/24 10:29:58;;;;;;;14.93;13.67;;;29.00;14.10;;;;;;5014536;28;20902;-79
2023/08/24 10:32:25;;;;;;;13.83;12.93;;;29.10;14.20;;;;;;5015674;28;20604;-78
2023/08/24 10:34:51;;;;;;;15.73;14.63;;;29.20;14.20;;;;;;5034107;28;20176;-78
2023/08/24 10:37:26;;;;;;;13.83;13.10;;;29.40;14.10;;;;;;5034289;28;20523;-79
2023/08/24 10:39:52;;;;;;;14.70;13.90;;;29.40;13.80;;;;;;5034119;28;20502;-78
2023/08/24 10:42:17;;;;;;;14.10;13.30;;;29.40;13.60;;;;;;5033448;28;20444;-78
2023/08/24 10:44:47;;;;;;;15.23;14.27;;;29.50;13.70;;;;;;5034236;28;20176;-78
2023/08/24 10:47:20;;;;;;;14.17;13.07;;;29.50;13.90;;;;;;5034711;28;20189;-79
2023/08/24 10:49:55;;;;;;;14.47;13.67;;;29.60;13.70;;;;;;5032823;28;20450;-78
2023/08/24 10:52:31;;;;;;;13.40;12.70;;;29.70;13.40;;;;;;5034597;28;20391;-78
2023/08/24 10:54:57;;;;;;;14.40;13.30;;;29.70;13.80;;;;;;5033639;28;20395;-78
2023/08/24 10:57:24;;;;;;;14.40;13.50;;;29.80;13.60;;;;;;5034123;28;20441;-79
2023/08/24 10:59:59;;;;;;;14.33;13.37;;;29.80;14.20;;;;;;5033840;28;20172;-78
2023/08/24 11:02:25;;;;;;;15.33;14.43;;;29.90;13.80;;;;;;5031453;28;20419;-78
2023/08/24 11:05:07;;;;;;;15.27;14.37;;;29.90;13.90;;;;;;5014147;28;20485;-78
2023/08/24 11:07:33;;;;;;;15.30;14.30;;;29.90;14.00;;;;;;5012791;28;20435;-78
2023/08/24 11:09:58;;;;;;;14.50;13.70;;;29.90;14.20;;;;;;5013649;28;20408;-78
2023/08/24 11:12:24;;;;;;;14.63;13.83;;;29.90;14.60;;;;;;5014135;28;20175;-77
2023/08/24 11:14:58;;;;;;;14.73;13.63;;;30.00;14.70;;;;;;5014291;28;20197;-78
2023/08/24 11:17:24;;;;;;;15.07;14.00;;;30.00;14.60;;;;;;5014339;28;20290;-77
2023/08/24 11:19:51;;;;;;;15.40;14.30;;;30.20;14.20;;;;;;5013881;28;20455;-77
2023/08/24 11:22:18;;;;;;;15.57;14.30;;;30.30;14.10;;;;;;5014731;28;20546;-78
2023/08/24 11:24:44;;;;;;;14.93;13.83;;;30.40;14.00;;;;;;5015354;28;20471;-78
2023/08/24 11:27:09;;;;;;;15.07;14.07;;;30.40;13.80;;;;;;5014949;28;20435;-78
2023/08/24 11:29:35;;;;;;;15.57;14.47;;;30.50;13.80;;;;;;5015652;28;20976;-79
2023/08/24 11:32:00;;;;;;;15.67;14.77;;;30.60;13.50;;;;;;5015879;28;20189;-79
2023/08/24 11:34:26;;;;;;;15.70;14.70;;;30.60;13.60;;;;;;5015893;28;20605;-79
2023/08/24 11:36:53;;;;;;;14.50;13.60;;;30.60;13.80;;;;;;5016105;28;20273;-78
2023/08/24 11:39:20;;;;;;;15.47;14.57;;;30.60;13.90;;;;;;5015716;28;20169;-79
2023/08/24 11:42:03;;;;;;;16.40;15.50;;;30.50;14.10;;;;;;5023310;28;20439;-78
2023/08/24 11:44:30;;;;;;;15.43;14.30;;;30.50;14.40;;;;;;5027602;28;20416;-78
2023/08/24 11:46:58;;;;;;;14.43;13.53;;;30.40;14.80;;;;;;5030097;28;20436;-77
2023/08/24 11:49:24;;;;;;;15.27;14.20;;;30.40;14.60;;;;;;5026854;28;20463;-78
2023/08/24 11:51:51;;;;;;;15.90;15.10;;;30.70;13.90;;;;;;5031094;28;20906;-77
2023/08/24 11:54:21;;;;;;;14.90;13.97;;;31.00;13.40;;;;;;5032262;28;20189;-80
2023/08/24 11:56:46;;;;;;;14.47;13.33;;;30.90;13.10;;;;;;5024059;28;20537;-79
2023/08/24 11:59:16;;;;;;;15.07;13.93;;;30.90;13.40;;;;;;5028311;28;20416;-79
2023/08/24 12:01:42;;;;;;;13.70;12.87;;;30.90;13.30;;;;;;5019519;28;20185;-79
2023/08/24 12:04:08;;;;;;;13.50;12.60;;;30.80;13.60;;;;;;5019337;28;20420;-78
2023/08/24 12:06:34;;;;;;;14.27;13.33;;;30.80;13.90;;;;;;5021717;28;20204;-77
2023/08/24 12:09:00;;;;;;;14.17;13.27;;;30.70;14.20;;;;;;5016923;28;20467;-77
2023/08/24 12:11:26;;;;;;;13.13;12.20;;;30.70;13.70;;;;;;5018137;28;20545;-78
2023/08/24 12:13:55;;;;;;;14.20;13.00;;;31.00;13.60;;;;;;5016501;28;20412;-76
2023/08/24 12:16:25;;;;;;;13.87;13.07;;;31.20;12.50;;;;;;5019879;28;20456;-75
2023/08/24 12:18:55;;;;;;;13.60;12.70;;;31.40;12.20;;;;;;5018594;28;20836;-76
2023/08/24 12:21:24;;;;;;;14.23;13.10;;;31.50;12.00;;;;;;5016866;28;20416;-78
2023/08/24 12:24:00;;;;;;;12.83;12.07;;;31.60;11.80;;;;;;5016291;28;20431;-76
2023/08/24 12:26:26;;;;;;;13.20;12.40;;;31.70;11.40;;;;;;5016407;28;20440;-77